createdAt,value
2018-09-06T00:01:43.271Z,18.70
2018-09-06T00:04:11.652Z,18.60
2018-09-06T00:06:40.099Z,18.50
2018-09-06T00:09:09.293Z,18.50
2018-09-06T00:11:37.763Z,18.60
2018-09-06T00:14:06.955Z,18.80
2018-09-06T00:16:36.044Z,18.90
2018-09-06T00:19:05.232Z,19.10
2018-09-06T00:21:33.640Z,19.10
2018-09-06T00:24:02.408Z,19.20
2018-09-06T00:26:31.456Z,19.20
2018-09-06T00:29:00.160Z,19.20
2018-09-06T00:31:28.941Z,19.30
2018-09-06T00:33:57.542Z,19.30
2018-09-06T00:36:26.233Z,19.20
2018-09-06T00:38:54.706Z,19.20
2018-09-06T00:41:23.103Z,19.30
2018-09-06T00:43:51.535Z,19.30
2018-09-06T00:46:20.045Z,19.30
2018-09-06T00:48:48.531Z,19.40
2018-09-06T00:51:16.948Z,19.40
2018-09-06T00:53:45.427Z,19.40
2018-09-06T00:56:13.908Z,19.40
2018-09-06T00:58:42.291Z,19.40
2018-09-06T01:01:10.713Z,19.40
2018-09-06T01:03:39.107Z,19.40
2018-09-06T01:06:07.862Z,19.40
2018-09-06T01:08:36.212Z,19.30
2018-09-06T01:11:05.666Z,19.20
2018-09-06T01:13:34.944Z,19.10
2018-09-06T01:16:03.388Z,19.20
2018-09-06T01:18:31.807Z,19.20
2018-09-06T01:21:00.237Z,19.20
2018-09-06T01:23:28.957Z,19.30
2018-09-06T01:25:57.912Z,19.40
2018-09-06T01:28:26.360Z,19.40
2018-09-06T01:30:55.403Z,19.40
2018-09-06T01:33:23.808Z,19.50
2018-09-06T01:35:57.569Z,19.50
2018-09-06T01:38:26.011Z,19.60
2018-09-06T01:40:54.414Z,19.50
2018-09-06T01:43:22.799Z,19.30
2018-09-06T01:45:51.190Z,19.30
2018-09-06T01:48:19.621Z,19.30
2018-09-06T01:50:48.081Z,19.20
2018-09-06T01:53:16.650Z,19.30
2018-09-06T01:55:45.125Z,19.20
2018-09-06T01:58:13.554Z,19.10
2018-09-06T02:00:41.981Z,19.10
2018-09-06T02:03:10.351Z,19.10
2018-09-06T02:05:39.477Z,19.00
2018-09-06T02:08:08.536Z,18.90
2018-09-06T02:10:36.998Z,18.70
2018-09-06T02:13:06.169Z,18.50
2018-09-06T02:15:34.824Z,18.60
2018-09-06T02:18:03.247Z,18.60
2018-09-06T02:20:31.676Z,18.50
2018-09-06T02:23:00.093Z,18.60
2018-09-06T02:25:28.522Z,18.70
2018-09-06T02:27:56.942Z,18.90
2018-09-06T02:30:25.641Z,19.00
2018-09-06T02:32:54.683Z,19.10
2018-09-06T02:35:23.805Z,19.20
2018-09-06T02:37:53.161Z,19.20
2018-09-06T02:40:27.495Z,19.10
2018-09-06T02:42:56.589Z,19.10
2018-09-06T02:45:25.725Z,19.20
2018-09-06T02:47:55.864Z,19.10
2018-09-06T02:51:34.039Z,18.90
2018-09-06T02:54:03.389Z,18.80
2018-09-06T02:56:32.332Z,18.90
2018-09-06T02:59:01.406Z,19.00
2018-09-06T03:01:30.577Z,19.00
2018-09-06T03:03:59.736Z,18.90
2018-09-06T03:06:28.418Z,18.80
2018-09-06T03:08:57.080Z,18.70
2018-09-06T03:11:28.794Z,18.80
2018-09-06T03:13:57.637Z,18.80
2018-09-06T03:16:26.116Z,18.80
2018-09-06T03:18:54.554Z,18.70
2018-09-06T03:21:22.981Z,18.60
2018-09-06T03:23:51.632Z,18.80
2018-09-06T03:26:20.779Z,18.90
2018-09-06T03:28:50.488Z,18.90
2018-09-06T03:31:19.202Z,18.60
2018-09-06T03:33:47.733Z,18.50
2018-09-06T03:36:16.410Z,18.60
2018-09-06T03:38:45.363Z,18.70
2018-09-06T03:41:13.848Z,18.80
2018-09-06T03:43:42.296Z,18.80
2018-09-06T03:46:10.699Z,18.70
2018-09-06T03:48:39.139Z,18.60
2018-09-06T03:51:07.819Z,18.50
2018-09-06T03:53:36.859Z,18.60
2018-09-06T03:56:05.242Z,18.70
2018-09-06T03:58:33.641Z,18.50
2018-09-06T04:01:02.182Z,18.40
2018-09-06T04:03:30.576Z,18.60
2018-09-06T04:05:58.955Z,18.60
2018-09-06T04:08:27.604Z,18.50
2018-09-06T04:10:55.968Z,18.50
2018-09-06T04:13:24.299Z,18.50
2018-09-06T04:15:52.724Z,18.40
2018-09-06T04:18:21.135Z,18.50
2018-09-06T04:20:49.503Z,18.30
2018-09-06T04:23:17.986Z,18.40
2018-09-06T04:25:46.386Z,18.40
2018-09-06T04:28:15.288Z,18.40
2018-09-06T04:30:43.706Z,18.50
2018-09-06T04:33:12.061Z,18.60
2018-09-06T04:35:40.433Z,18.60
2018-09-06T04:38:08.873Z,18.50
2018-09-06T04:40:37.265Z,18.60
2018-09-06T04:43:05.712Z,18.50
2018-09-06T04:45:34.626Z,18.50
2018-09-06T04:48:03.067Z,18.60
2018-09-06T04:50:31.425Z,18.70
2018-09-06T04:52:59.800Z,18.60
2018-09-06T04:55:28.239Z,18.50
2018-09-06T04:57:56.673Z,18.70
2018-09-06T05:00:24.989Z,18.70
2018-09-06T05:02:53.367Z,18.70
2018-09-06T05:05:21.754Z,18.70
2018-09-06T05:07:50.118Z,18.60
2018-09-06T05:10:18.513Z,18.50
2018-09-06T05:12:46.926Z,18.60
2018-09-06T05:15:15.330Z,18.60
2018-09-06T05:17:43.674Z,18.60
2018-09-06T05:20:12.044Z,18.70
2018-09-06T05:22:40.473Z,18.70
2018-09-06T05:25:09.137Z,18.60
2018-09-06T05:27:37.505Z,18.60
2018-09-06T05:30:06.293Z,18.70
2018-09-06T05:32:34.964Z,18.80
2018-09-06T05:35:03.433Z,18.80
2018-09-06T05:37:31.819Z,18.80
2018-09-06T05:40:00.172Z,18.80
2018-09-06T05:42:28.572Z,18.90
2018-09-06T05:44:56.899Z,18.90
2018-09-06T05:47:25.311Z,18.60
2018-09-06T05:49:53.643Z,18.60
2018-09-06T05:52:22.354Z,18.50
2018-09-06T05:54:50.696Z,18.60
2018-09-06T05:57:19.056Z,18.60
2018-09-06T05:59:47.419Z,18.80
2018-09-06T06:02:15.831Z,18.70
2018-09-06T06:04:44.211Z,18.60
2018-09-06T06:07:12.588Z,18.80
2018-09-06T06:09:41.023Z,18.80
2018-09-06T06:12:09.501Z,18.70
2018-09-06T06:14:38.462Z,18.50
2018-09-06T06:17:06.901Z,18.40
2018-09-06T06:19:35.276Z,18.50
2018-09-06T06:22:03.789Z,18.40
2018-09-06T06:24:32.195Z,18.40
2018-09-06T06:27:00.588Z,18.50
2018-09-06T06:29:28.979Z,18.60
2018-09-06T06:31:57.443Z,18.70
2018-09-06T06:34:25.836Z,18.60
2018-09-06T06:36:54.234Z,18.50
2018-09-06T06:39:22.628Z,18.50
2018-09-06T06:41:51.043Z,18.50
2018-09-06T06:44:19.540Z,18.60
2018-09-06T06:46:47.983Z,18.70
2018-09-06T06:49:16.333Z,18.80
2018-09-06T06:51:44.782Z,18.90
2018-09-06T06:54:13.185Z,19.00
2018-09-06T06:56:41.586Z,19.10
2018-09-06T06:59:10.046Z,19.20
2018-09-06T07:01:38.415Z,19.00
2018-09-06T07:04:06.889Z,19.10
2018-09-06T07:06:35.197Z,19.20
2018-09-06T07:09:03.761Z,19.20
2018-09-06T07:11:32.144Z,19.30
2018-09-06T07:14:00.528Z,19.30
2018-09-06T07:16:28.928Z,19.40
2018-09-06T07:18:57.373Z,19.50
2018-09-06T07:21:25.885Z,19.60
2018-09-06T07:23:54.275Z,19.40
2018-09-06T07:26:22.761Z,19.50
2018-09-06T07:28:51.199Z,19.60
2018-09-06T07:31:19.670Z,19.60
2018-09-06T07:33:48.822Z,19.70
2018-09-06T07:36:17.530Z,19.60
2018-09-06T07:38:45.913Z,19.70
2018-09-06T07:41:14.304Z,19.60
2018-09-06T07:43:42.789Z,19.70
2018-09-06T07:46:11.193Z,19.70
2018-09-06T07:48:39.574Z,19.90
2018-09-06T07:51:07.964Z,19.80
2018-09-06T07:53:36.461Z,19.80
2018-09-06T07:56:05.720Z,19.80
2018-09-06T07:58:34.114Z,19.80
2018-09-06T08:01:02.833Z,19.70
2018-09-06T08:03:32.308Z,19.80
2018-09-06T08:06:00.737Z,19.80
2018-09-06T08:08:29.274Z,19.90
2018-09-06T08:10:57.729Z,19.90
2018-09-06T08:13:26.651Z,20.00
2018-09-06T08:15:55.049Z,19.90
2018-09-06T08:18:23.422Z,19.70
2018-09-06T08:20:51.916Z,19.70
2018-09-06T08:23:20.617Z,19.80
2018-09-06T08:25:48.991Z,20.10
2018-09-06T08:28:17.611Z,20.00
2018-09-06T08:30:46.513Z,19.60
2018-09-06T08:33:15.199Z,19.90
2018-09-06T08:35:43.630Z,19.90
2018-09-06T08:38:12.028Z,19.90
2018-09-06T08:40:40.447Z,20.00
2018-09-06T08:43:08.857Z,20.00
2018-09-06T08:45:37.596Z,20.10
2018-09-06T08:48:06.355Z,20.20
2018-09-06T08:50:34.884Z,20.20
2018-09-06T08:53:03.339Z,20.30
2018-09-06T08:55:31.687Z,20.40
2018-09-06T08:58:00.556Z,20.50
2018-09-06T09:00:28.981Z,20.40
2018-09-06T09:02:57.449Z,20.30
2018-09-06T09:05:25.953Z,20.40
2018-09-06T09:07:54.409Z,20.40
2018-09-06T09:10:22.803Z,20.60
2018-09-06T09:12:51.174Z,20.60
2018-09-06T09:15:19.587Z,20.60
2018-09-06T09:17:48.034Z,20.70
2018-09-06T09:20:16.449Z,20.70
2018-09-06T09:22:44.886Z,20.70
2018-09-06T09:25:13.714Z,20.40
2018-09-06T09:27:42.187Z,20.60
2018-09-06T09:30:10.645Z,20.60
2018-09-06T09:32:39.024Z,20.70
2018-09-06T09:35:07.662Z,20.70
2018-09-06T09:37:35.992Z,20.80
2018-09-06T09:40:04.910Z,20.60
2018-09-06T09:42:33.325Z,20.70
2018-09-06T09:45:01.712Z,20.60
2018-09-06T09:49:57.737Z,20.20
2018-09-06T09:52:26.337Z,20.40
2018-09-06T09:54:54.745Z,20.50
2018-09-06T09:57:23.282Z,20.60
2018-09-06T09:59:51.708Z,20.60
2018-09-06T10:02:25.277Z,20.40
2018-09-06T10:04:59.892Z,20.60
2018-09-06T10:07:33.728Z,20.10
2018-09-06T10:10:02.183Z,20.20
2018-09-06T10:12:30.539Z,20.50
2018-09-06T10:14:58.855Z,20.40
2018-09-06T10:17:27.255Z,20.40
2018-09-06T10:19:55.624Z,20.40
2018-09-06T10:22:23.984Z,20.60
2018-09-06T10:24:52.356Z,20.60
2018-09-06T10:27:21.017Z,20.40
2018-09-06T10:29:49.422Z,20.30
2018-09-06T10:32:17.956Z,20.50
2018-09-06T10:34:46.420Z,20.20
2018-09-06T10:37:14.974Z,20.30
2018-09-06T10:39:43.592Z,20.40
2018-09-06T10:42:12.265Z,20.60
2018-09-06T10:44:40.780Z,20.70
2018-09-06T10:47:09.266Z,20.50
2018-09-06T10:49:37.745Z,20.40
2018-09-06T10:52:06.435Z,20.30
2018-09-06T10:54:34.934Z,20.20
2018-09-06T10:57:03.434Z,20.30
2018-09-06T10:59:31.838Z,20.30
2018-09-06T11:02:00.252Z,20.30
2018-09-06T11:04:28.710Z,20.30
2018-09-06T11:06:57.126Z,20.40
2018-09-06T11:09:25.568Z,20.10
2018-09-06T11:11:53.902Z,20.20
2018-09-06T11:14:22.590Z,20.00
2018-09-06T11:16:52.239Z,19.90
2018-09-06T11:19:20.619Z,19.90
2018-09-06T11:21:49.451Z,19.80
2018-09-06T11:24:17.718Z,20.00
2018-09-06T11:26:46.115Z,20.00
2018-09-06T11:29:14.524Z,20.00
2018-09-06T11:31:42.892Z,20.10
2018-09-06T11:34:11.365Z,20.00
2018-09-06T11:36:39.818Z,19.90
2018-09-06T11:39:09.886Z,19.80
2018-09-06T11:41:38.815Z,19.80
2018-09-06T11:44:07.411Z,19.90
2018-09-06T11:46:35.878Z,20.00
2018-09-06T11:49:04.253Z,20.10
2018-09-06T11:51:33.107Z,20.20
2018-09-06T11:54:01.549Z,20.30
2018-09-06T11:56:30.574Z,20.30
2018-09-06T11:58:59.224Z,20.50
2018-09-06T12:01:27.641Z,20.40
2018-09-06T12:03:56.356Z,20.40
2018-09-06T12:06:24.762Z,20.40
2018-09-06T12:08:53.172Z,20.40
2018-09-06T12:11:21.516Z,20.40
2018-09-06T12:13:49.958Z,20.60
2018-09-06T12:16:18.429Z,20.70
2018-09-06T12:18:46.857Z,20.60
2018-09-06T12:21:15.222Z,20.80
2018-09-06T12:23:43.744Z,20.80
2018-09-06T12:26:12.970Z,20.80
2018-09-06T12:28:41.339Z,20.60
2018-09-06T12:31:09.727Z,20.50
2018-09-06T12:33:38.280Z,20.80
2018-09-06T12:36:06.688Z,20.90
2018-09-06T12:38:35.179Z,20.90
2018-09-06T12:41:03.607Z,20.90
2018-09-06T12:43:32.070Z,21.00
2018-09-06T12:46:00.948Z,20.90
2018-09-06T12:48:29.442Z,20.70
2018-09-06T12:50:58.274Z,20.70
2018-09-06T12:53:26.692Z,20.50
2018-09-06T12:55:55.123Z,20.40
2018-09-06T12:58:23.557Z,20.30
2018-09-06T13:00:53.133Z,20.10
2018-09-06T13:03:21.817Z,20.20
2018-09-06T13:05:50.700Z,20.20
2018-09-06T13:08:19.499Z,20.10
2018-09-06T13:10:47.978Z,20.30
2018-09-06T13:13:16.378Z,20.30
2018-09-06T13:15:44.752Z,20.30
2018-09-06T13:18:13.333Z,20.30
2018-09-06T13:20:41.747Z,20.30
2018-09-06T13:23:11.060Z,20.70
2018-09-06T13:25:39.479Z,21.30
2018-09-06T13:28:07.849Z,21.40
2018-09-06T13:37:22.321Z,21.50
2018-09-06T13:39:50.841Z,21.50
2018-09-06T13:42:19.285Z,21.50
2018-09-06T13:44:48.010Z,21.50
2018-09-06T13:47:16.412Z,21.70
2018-09-06T13:49:44.819Z,21.80
2018-09-06T13:52:13.603Z,22.40
2018-09-06T13:54:42.473Z,22.20
2018-09-06T13:57:11.088Z,21.90
2018-09-06T13:59:39.670Z,21.70
2018-09-06T14:02:08.347Z,21.50
2018-09-06T14:04:36.819Z,21.40
2018-09-06T14:07:05.568Z,21.40
2018-09-06T14:09:34.041Z,21.30
2018-09-06T14:12:03.916Z,21.40
2018-09-06T14:14:32.798Z,21.30
2018-09-06T14:17:01.375Z,21.10
2018-09-06T14:19:29.791Z,21.00
2018-09-06T14:21:58.135Z,21.10
2018-09-06T14:24:26.600Z,21.10
2018-09-06T14:26:55.114Z,21.00
2018-09-06T14:29:23.799Z,20.90
2018-09-06T14:31:52.245Z,20.60
2018-09-06T14:34:20.582Z,20.80
2018-09-06T14:36:49.319Z,20.70
2018-09-06T14:39:18.499Z,20.50
2018-09-06T14:41:46.941Z,20.60
2018-09-06T14:44:15.512Z,20.80
2018-09-06T14:46:43.931Z,20.80
2018-09-06T14:49:12.919Z,20.90
2018-09-06T14:51:42.162Z,20.80
2018-09-06T14:54:10.841Z,20.80
2018-09-06T14:56:39.210Z,20.80
2018-09-06T14:59:07.660Z,20.50
2018-09-06T15:01:36.057Z,20.10
2018-09-06T15:04:04.564Z,20.20
2018-09-06T15:06:32.965Z,20.20
2018-09-06T15:09:02.132Z,20.30
2018-09-06T15:11:30.552Z,20.60
2018-09-06T15:13:59.029Z,20.70
2018-09-06T15:16:27.374Z,20.70
2018-09-06T15:18:55.864Z,20.60
2018-09-06T15:21:24.413Z,20.60
2018-09-06T15:23:52.861Z,20.50
2018-09-06T15:26:21.244Z,20.50
2018-09-06T15:28:49.692Z,20.60
2018-09-06T15:31:18.422Z,20.50
2018-09-06T15:33:46.898Z,20.20
2018-09-06T15:36:15.796Z,20.20
2018-09-06T15:38:44.285Z,20.10
2018-09-06T15:41:12.650Z,20.20
2018-09-06T15:43:41.301Z,20.20
2018-09-06T15:46:09.852Z,20.10
2018-09-06T15:48:38.227Z,20.10
2018-09-06T15:51:06.999Z,20.10
2018-09-06T15:53:35.455Z,20.10
2018-09-06T15:56:03.785Z,20.20
2018-09-06T15:58:32.137Z,20.20
2018-09-06T16:01:00.558Z,20.30
2018-09-06T16:03:28.963Z,20.20
2018-09-06T16:05:57.333Z,20.40
2018-09-06T16:08:25.926Z,20.20
2018-09-06T16:10:54.335Z,20.00
2018-09-06T16:13:23.280Z,19.80
2018-09-06T16:15:51.752Z,19.90
2018-09-06T16:18:20.552Z,19.90
2018-09-06T16:20:48.916Z,19.90
2018-09-06T16:23:17.406Z,19.70
2018-09-06T16:25:45.915Z,19.70
2018-09-06T16:28:14.329Z,19.70
2018-09-06T16:30:42.718Z,19.60
2018-09-06T16:33:11.176Z,19.60
2018-09-06T16:35:39.644Z,19.90
2018-09-06T16:38:08.060Z,19.60
2018-09-06T16:40:36.446Z,19.60
2018-09-06T16:43:05.126Z,19.60
2018-09-06T16:45:33.538Z,19.50
2018-09-06T16:48:02.041Z,19.50
2018-09-06T16:50:30.389Z,19.50
2018-09-06T16:52:58.775Z,19.50
2018-09-06T16:55:27.260Z,19.60
2018-09-06T16:57:55.686Z,19.70
2018-09-06T17:00:24.452Z,19.70
2018-09-06T17:02:52.904Z,19.70
2018-09-06T17:05:21.417Z,19.70
2018-09-06T17:07:49.884Z,19.60
2018-09-06T17:10:18.425Z,19.60
2018-09-06T17:12:46.776Z,19.60
2018-09-06T17:15:15.215Z,19.60
2018-09-06T17:17:43.634Z,19.70
2018-09-06T17:20:12.054Z,19.60
2018-09-06T17:22:41.025Z,19.60
2018-09-06T17:25:09.533Z,19.60
2018-09-06T17:27:37.973Z,19.50
2018-09-06T17:30:06.561Z,19.50
2018-09-06T17:32:35.087Z,19.50
2018-09-06T17:35:03.837Z,19.70
2018-09-06T17:37:32.239Z,19.50
2018-09-06T17:40:00.801Z,19.30
2018-09-06T17:42:30.686Z,19.40
2018-09-06T17:44:59.331Z,19.40
2018-09-06T17:47:27.751Z,19.40
2018-09-06T17:49:56.133Z,19.40
2018-09-06T17:52:24.590Z,19.30
2018-09-06T17:54:53.017Z,19.30
2018-09-06T17:57:21.420Z,19.20
2018-09-06T17:59:49.841Z,19.20
2018-09-06T18:02:18.227Z,19.20
2018-09-06T18:04:46.665Z,19.30
2018-09-06T18:07:15.103Z,19.30
2018-09-06T18:09:43.529Z,19.30
2018-09-06T18:12:11.904Z,19.00
2018-09-06T18:14:40.441Z,19.00
2018-09-06T18:17:08.978Z,19.10
2018-09-06T18:19:37.512Z,19.10
2018-09-06T18:22:06.004Z,19.10
2018-09-06T18:24:34.508Z,18.90
2018-09-06T18:27:02.940Z,19.20
2018-09-06T18:29:31.390Z,19.10
2018-09-06T18:31:59.863Z,19.10
2018-09-06T18:34:28.354Z,19.10
2018-09-06T18:36:56.801Z,19.00
2018-09-06T18:39:25.344Z,19.00
2018-09-06T18:41:53.711Z,18.80
2018-09-06T18:44:22.063Z,18.90
2018-09-06T18:46:50.532Z,19.00
2018-09-06T18:49:18.917Z,18.90
2018-09-06T18:51:50.831Z,18.80
2018-09-06T18:54:19.425Z,18.90
2018-09-06T18:56:47.832Z,18.90
2018-09-06T18:59:16.251Z,18.90
2018-09-06T19:01:44.904Z,18.90
2018-09-06T19:04:13.327Z,18.90
2018-09-06T19:06:41.696Z,18.70
2018-09-06T19:09:11.608Z,18.70
2018-09-06T19:11:39.900Z,18.70
2018-09-06T19:14:08.348Z,18.60
2018-09-06T19:16:37.083Z,18.50
2018-09-06T19:19:05.966Z,18.60
2018-09-06T19:21:34.358Z,18.50
2018-09-06T19:24:02.768Z,18.60
2018-09-06T19:26:31.143Z,18.50
2018-09-06T19:28:59.575Z,18.50
2018-09-06T19:31:28.263Z,18.60
2018-09-06T19:33:56.784Z,18.60
2018-09-06T19:36:25.236Z,18.70
2018-09-06T19:38:54.154Z,18.80
2018-09-06T19:41:22.590Z,18.80
2018-09-06T19:43:51.018Z,18.50
2018-09-06T19:46:19.636Z,18.40
2018-09-06T19:48:48.109Z,18.50
2018-09-06T19:51:16.575Z,18.40
2018-09-06T19:53:45.054Z,18.50
2018-09-06T19:56:13.821Z,18.40
2018-09-06T19:58:42.220Z,18.60
2018-09-06T20:01:10.619Z,18.40
2018-09-06T20:03:39.020Z,18.40
2018-09-06T20:06:07.448Z,18.30
2018-09-06T20:08:36.041Z,18.40
2018-09-06T20:12:33.861Z,18.30
2018-09-06T20:15:02.279Z,18.30
2018-09-06T20:17:30.689Z,18.40
2018-09-06T20:19:59.029Z,18.40
2018-09-06T20:22:27.455Z,18.00
2018-09-06T20:24:55.873Z,18.00
2018-09-06T20:27:24.414Z,18.10
2018-09-06T20:29:52.853Z,18.20
2018-09-06T20:32:21.302Z,18.00
2018-09-06T20:34:49.806Z,18.10
2018-09-06T20:37:18.240Z,18.10
2018-09-06T20:39:46.725Z,18.10
2018-09-06T20:42:15.096Z,18.10
2018-09-06T20:44:43.495Z,18.20
2018-09-06T20:47:11.916Z,18.30
2018-09-06T20:49:40.464Z,18.00
2018-09-06T20:52:08.972Z,18.10
2018-09-06T20:54:37.381Z,18.10
2018-09-06T20:57:06.753Z,18.10
2018-09-06T20:59:35.275Z,18.30
2018-09-06T21:02:09.452Z,18.30
2018-09-06T21:04:37.852Z,18.20
2018-09-06T21:07:06.303Z,18.20
2018-09-06T21:09:34.709Z,18.10
2018-09-06T21:12:03.175Z,18.20
2018-09-06T21:14:31.672Z,18.10
2018-09-06T21:17:00.030Z,17.90
2018-09-06T21:19:28.374Z,17.70
2018-09-06T21:21:57.155Z,17.40
2018-09-06T21:24:25.620Z,17.30
2018-09-06T21:26:54.347Z,17.20
2018-09-06T21:29:22.837Z,17.20
2018-09-06T21:31:51.211Z,17.10
2018-09-06T21:34:19.601Z,17.20
2018-09-06T21:36:48.035Z,17.30
2018-09-06T21:39:16.400Z,16.80
2018-09-06T21:41:44.774Z,16.60
2018-09-06T21:44:13.144Z,16.50
2018-09-06T21:46:41.883Z,16.40
2018-09-06T21:49:10.431Z,16.40
2018-09-06T21:51:38.932Z,16.50
2018-09-06T21:54:07.325Z,16.60
2018-09-06T21:56:35.753Z,16.60
2018-09-06T21:59:04.289Z,16.60
2018-09-06T22:01:32.772Z,16.70
2018-09-06T22:04:03.158Z,16.60
2018-09-06T22:06:31.865Z,16.60
2018-09-06T22:09:00.386Z,16.50
2018-09-06T22:11:28.973Z,16.60
2018-09-06T22:13:57.393Z,16.70
2018-09-06T22:16:26.075Z,16.40
2018-09-06T22:18:54.508Z,16.20
2018-09-06T22:21:22.941Z,16.30
2018-09-06T22:23:51.391Z,16.30
2018-09-06T22:26:19.913Z,16.20
2018-09-06T22:28:48.353Z,16.20
2018-09-06T22:31:16.907Z,16.00
2018-09-06T22:33:45.612Z,15.80
2018-09-06T22:36:14.081Z,15.80
2018-09-06T22:38:42.440Z,15.90
2018-09-06T22:41:10.876Z,15.80
2018-09-06T22:43:39.353Z,15.90
2018-09-06T22:46:07.827Z,15.80
2018-09-06T22:48:36.235Z,15.90
2018-09-06T22:51:05.007Z,16.00
2018-09-06T22:53:33.949Z,16.10
2018-09-06T22:56:02.823Z,16.00
2018-09-06T22:58:31.264Z,16.00
2018-09-06T23:00:59.694Z,16.00
2018-09-06T23:03:33.551Z,16.00
2018-09-06T23:06:02.057Z,15.90
2018-09-06T23:08:30.576Z,16.00
2018-09-06T23:10:58.972Z,15.90
2018-09-06T23:13:27.392Z,15.90
2018-09-06T23:15:55.775Z,15.70
2018-09-06T23:18:24.211Z,15.60
2018-09-06T23:20:52.775Z,15.60
2018-09-06T23:23:21.249Z,15.80
2018-09-06T23:25:49.682Z,15.80
2018-09-06T23:28:18.188Z,15.80
2018-09-06T23:30:46.607Z,15.70
2018-09-06T23:33:15.036Z,15.50
2018-09-06T23:35:46.108Z,15.40
2018-09-06T23:38:16.846Z,15.60
2018-09-06T23:40:50.677Z,15.60
2018-09-06T23:43:19.585Z,15.60
2018-09-06T23:45:51.801Z,15.50
2018-09-06T23:48:21.793Z,15.60
2018-09-06T23:50:50.553Z,15.70
2018-09-06T23:53:19.102Z,15.60
2018-09-06T23:55:47.477Z,15.60
2018-09-06T23:58:15.880Z,15.70
